sensor_id;sensor_type;location;lat;lon;timestamp;temperature;humidity
81935;DHT22;71405;47.674;-2.050;2024-03-23T00:52:42;18.00;58.10
81935;DHT22;71405;47.674;-2.050;2024-03-23T00:55:08;18.00;58.20
81935;DHT22;71405;47.674;-2.050;2024-03-23T00:57:33;18.00;58.10
81935;DHT22;71405;47.674;-2.050;2024-03-23T00:59:59;18.00;58.10
81935;DHT22;71405;47.674;-2.050;2024-03-23T01:02:25;18.00;58.10
81935;DHT22;71405;47.674;-2.050;2024-03-23T01:04:50;18.00;58.30
81935;DHT22;71405;47.674;-2.050;2024-03-23T01:07:16;18.00;58.10
81935;DHT22;71405;47.674;-2.050;2024-03-23T01:09:42;18.00;58.10
81935;DHT22;71405;47.674;-2.050;2024-03-23T01:12:07;18.00;58.20
81935;DHT22;71405;47.674;-2.050;2024-03-23T01:14:33;18.00;58.20
81935;DHT22;71405;47.674;-2.050;2024-03-23T01:16:59;17.90;58.00
81935;DHT22;71405;47.674;-2.050;2024-03-23T01:19:24;17.90;58.00
81935;DHT22;71405;47.674;-2.050;2024-03-23T01:21:50;17.90;57.90
81935;DHT22;71405;47.674;-2.050;2024-03-23T01:24:15;17.90;57.90
81935;DHT22;71405;47.674;-2.050;2024-03-23T01:26:41;17.90;57.80
81935;DHT22;71405;47.674;-2.050;2024-03-23T01:29:07;17.90;57.90
81935;DHT22;71405;47.674;-2.050;2024-03-23T01:31:32;17.90;57.80
81935;DHT22;71405;47.674;-2.050;2024-03-23T01:33:58;17.90;57.90
81935;DHT22;71405;47.674;-2.050;2024-03-23T01:36:24;17.90;57.80
81935;DHT22;71405;47.674;-2.050;2024-03-23T01:38:50;17.90;57.70
81935;DHT22;71405;47.674;-2.050;2024-03-23T01:41:17;17.90;57.60
81935;DHT22;71405;47.674;-2.050;2024-03-23T01:43:43;17.90;57.70
81935;DHT22;71405;47.674;-2.050;2024-03-23T01:46:09;17.90;57.80
81935;DHT22;71405;47.674;-2.050;2024-03-23T01:48:34;17.90;57.70
81935;DHT22;71405;47.674;-2.050;2024-03-23T01:51:00;17.90;57.70
81935;DHT22;71405;47.674;-2.050;2024-03-23T01:53:26;17.80;57.50
81935;DHT22;71405;47.674;-2.050;2024-03-23T01:55:51;17.80;57.70
81935;DHT22;71405;47.674;-2.050;2024-03-23T01:58:17;17.80;57.80
81935;DHT22;71405;47.674;-2.050;2024-03-23T02:00:43;17.80;57.70
81935;DHT22;71405;47.674;-2.050;2024-03-23T02:03:27;17.80;57.90
81935;DHT22;71405;47.674;-2.050;2024-03-23T02:05:54;17.90;57.70
81935;DHT22;71405;47.674;-2.050;2024-03-23T02:08:22;17.90;57.60
81935;DHT22;71405;47.674;-2.050;2024-03-23T02:10:52;17.90;57.60
81935;DHT22;71405;47.674;-2.050;2024-03-23T02:13:20;17.90;57.60
81935;DHT22;71405;47.674;-2.050;2024-03-23T02:15:46;17.90;57.60
81935;DHT22;71405;47.674;-2.050;2024-03-23T02:18:12;17.90;57.50
81935;DHT22;71405;47.674;-2.050;2024-03-23T02:20:38;17.80;57.50
81935;DHT22;71405;47.674;-2.050;2024-03-23T02:23:04;17.80;57.50
81935;DHT22;71405;47.674;-2.050;2024-03-23T02:25:33;17.80;57.50
81935;DHT22;71405;47.674;-2.050;2024-03-23T02:27:59;17.80;57.50
81935;DHT22;71405;47.674;-2.050;2024-03-23T02:30:26;17.80;57.40
81935;DHT22;71405;47.674;-2.050;2024-03-23T02:32:52;17.80;57.40
81935;DHT22;71405;47.674;-2.050;2024-03-23T02:35:17;17.80;57.30
81935;DHT22;71405;47.674;-2.050;2024-03-23T02:37:43;17.80;57.30
81935;DHT22;71405;47.674;-2.050;2024-03-23T02:40:09;17.80;57.50
81935;DHT22;71405;47.674;-2.050;2024-03-23T02:42:34;17.80;57.30
81935;DHT22;71405;47.674;-2.050;2024-03-23T02:45:00;17.80;57.50
81935;DHT22;71405;47.674;-2.050;2024-03-23T02:47:26;17.80;57.50
81935;DHT22;71405;47.674;-2.050;2024-03-23T02:49:51;17.80;57.30
81935;DHT22;71405;47.674;-2.050;2024-03-23T02:52:17;17.70;57.40
81935;DHT22;71405;47.674;-2.050;2024-03-23T02:54:42;17.80;57.40
81935;DHT22;71405;47.674;-2.050;2024-03-23T02:57:10;17.80;57.50
81935;DHT22;71405;47.674;-2.050;2024-03-23T02:59:36;17.70;57.40
81935;DHT22;71405;47.674;-2.050;2024-03-23T03:02:02;17.80;57.20
81935;DHT22;71405;47.674;-2.050;2024-03-23T03:04:30;17.70;57.20
81935;DHT22;71405;47.674;-2.050;2024-03-23T03:06:56;17.70;57.20
81935;DHT22;71405;47.674;-2.050;2024-03-23T03:09:21;17.70;57.20
81935;DHT22;71405;47.674;-2.050;2024-03-23T03:11:47;17.70;57.10
81935;DHT22;71405;47.674;-2.050;2024-03-23T03:14:13;17.70;57.20
81935;DHT22;71405;47.674;-2.050;2024-03-23T03:16:38;17.70;57.20
81935;DHT22;71405;47.674;-2.050;2024-03-23T03:19:04;17.70;57.20
81935;DHT22;71405;47.674;-2.050;2024-03-23T03:21:30;17.70;57.60
81935;DHT22;71405;47.674;-2.050;2024-03-23T03:23:56;17.70;57.40
81935;DHT22;71405;47.674;-2.050;2024-03-23T03:26:22;17.70;57.10
81935;DHT22;71405;47.674;-2.050;2024-03-23T03:28:48;17.70;57.00
81935;DHT22;71405;47.674;-2.050;2024-03-23T03:31:17;17.70;57.00
81935;DHT22;71405;47.674;-2.050;2024-03-23T03:33:44;17.70;57.10
81935;DHT22;71405;47.674;-2.050;2024-03-23T03:36:10;17.70;57.10
81935;DHT22;71405;47.674;-2.050;2024-03-23T03:38:36;17.70;56.90
81935;DHT22;71405;47.674;-2.050;2024-03-23T03:41:02;17.70;57.10
81935;DHT22;71405;47.674;-2.050;2024-03-23T03:43:28;17.70;56.90
81935;DHT22;71405;47.674;-2.050;2024-03-23T03:45:55;17.70;57.00
81935;DHT22;71405;47.674;-2.050;2024-03-23T03:48:21;17.60;57.00
81935;DHT22;71405;47.674;-2.050;2024-03-23T03:50:47;17.60;57.00
81935;DHT22;71405;47.674;-2.050;2024-03-23T03:53:12;17.60;57.00
81935;DHT22;71405;47.674;-2.050;2024-03-23T03:55:38;17.60;56.90
81935;DHT22;71405;47.674;-2.050;2024-03-23T03:58:04;17.60;56.90
81935;DHT22;71405;47.674;-2.050;2024-03-23T04:00:30;17.60;57.00
81935;DHT22;71405;47.674;-2.050;2024-03-23T04:02:56;17.60;56.70
81935;DHT22;71405;47.674;-2.050;2024-03-23T04:05:22;17.60;56.80
81935;DHT22;71405;47.674;-2.050;2024-03-23T04:07:48;17.60;56.90
81935;DHT22;71405;47.674;-2.050;2024-03-23T04:10:14;17.60;57.20
81935;DHT22;71405;47.674;-2.050;2024-03-23T04:12:40;17.60;56.80
81935;DHT22;71405;47.674;-2.050;2024-03-23T04:15:06;17.60;56.70
81935;DHT22;71405;47.674;-2.050;2024-03-23T04:17:32;17.60;56.80
81935;DHT22;71405;47.674;-2.050;2024-03-23T04:20:00;17.60;56.70
81935;DHT22;71405;47.674;-2.050;2024-03-23T04:22:27;17.60;56.70
81935;DHT22;71405;47.674;-2.050;2024-03-23T04:24:56;17.60;56.70
81935;DHT22;71405;47.674;-2.050;2024-03-23T04:27:23;17.60;56.80
81935;DHT22;71405;47.674;-2.050;2024-03-23T04:29:49;17.60;56.70
81935;DHT22;71405;47.674;-2.050;2024-03-23T04:32:15;17.60;56.60
81935;DHT22;71405;47.674;-2.050;2024-03-23T04:34:42;17.60;56.70
81935;DHT22;71405;47.674;-2.050;2024-03-23T04:37:09;17.60;56.60
81935;DHT22;71405;47.674;-2.050;2024-03-23T04:39:35;17.60;56.70
81935;DHT22;71405;47.674;-2.050;2024-03-23T04:42:01;17.50;56.60
81935;DHT22;71405;47.674;-2.050;2024-03-23T04:44:28;17.50;56.60
81935;DHT22;71405;47.674;-2.050;2024-03-23T04:46:54;17.50;56.40
81935;DHT22;71405;47.674;-2.050;2024-03-23T04:49:19;17.50;56.60
81935;DHT22;71405;47.674;-2.050;2024-03-23T04:51:45;17.50;56.30
81935;DHT22;71405;47.674;-2.050;2024-03-23T04:54:12;17.50;56.60
81935;DHT22;71405;47.674;-2.050;2024-03-23T04:56:38;17.50;56.40
81935;DHT22;71405;47.674;-2.050;2024-03-23T04:59:03;17.50;56.40
81935;DHT22;71405;47.674;-2.050;2024-03-23T05:01:31;17.50;56.50
81935;DHT22;71405;47.674;-2.050;2024-03-23T05:03:57;17.50;56.50
81935;DHT22;71405;47.674;-2.050;2024-03-23T05:06:23;17.50;56.50
81935;DHT22;71405;47.674;-2.050;2024-03-23T05:08:49;17.50;56.50
81935;DHT22;71405;47.674;-2.050;2024-03-23T05:11:15;17.50;56.40
81935;DHT22;71405;47.674;-2.050;2024-03-23T05:13:41;17.50;56.50
81935;DHT22;71405;47.674;-2.050;2024-03-23T05:16:07;17.50;56.40
81935;DHT22;71405;47.674;-2.050;2024-03-23T05:18:34;17.50;56.70
81935;DHT22;71405;47.674;-2.050;2024-03-23T05:21:00;17.50;57.00
81935;DHT22;71405;47.674;-2.050;2024-03-23T05:23:26;17.50;56.70
81935;DHT22;71405;47.674;-2.050;2024-03-23T05:25:52;17.50;56.40
81935;DHT22;71405;47.674;-2.050;2024-03-23T05:28:18;17.50;56.40
81935;DHT22;71405;47.674;-2.050;2024-03-23T05:30:50;17.50;56.30
81935;DHT22;71405;47.674;-2.050;2024-03-23T05:33:16;17.50;56.30
81935;DHT22;71405;47.674;-2.050;2024-03-23T05:35:42;17.50;56.20
81935;DHT22;71405;47.674;-2.050;2024-03-23T05:38:08;17.50;56.20
81935;DHT22;71405;47.674;-2.050;2024-03-23T05:40:33;17.50;56.30
81935;DHT22;71405;47.674;-2.050;2024-03-23T05:43:03;17.50;56.50
81935;DHT22;71405;47.674;-2.050;2024-03-23T05:45:29;17.50;56.30
81935;DHT22;71405;47.674;-2.050;2024-03-23T05:47:55;17.40;56.20
81935;DHT22;71405;47.674;-2.050;2024-03-23T05:50:22;17.40;56.20
81935;DHT22;71405;47.674;-2.050;2024-03-23T05:52:49;17.40;56.10
81935;DHT22;71405;47.674;-2.050;2024-03-23T05:55:15;17.40;56.20
81935;DHT22;71405;47.674;-2.050;2024-03-23T05:57:41;17.40;56.20
81935;DHT22;71405;47.674;-2.050;2024-03-23T06:00:07;17.40;56.20
81935;DHT22;71405;47.674;-2.050;2024-03-23T06:02:44;17.40;56.30
81935;DHT22;71405;47.674;-2.050;2024-03-23T06:05:11;17.40;56.20
81935;DHT22;71405;47.674;-2.050;2024-03-23T06:07:37;17.40;56.10
81935;DHT22;71405;47.674;-2.050;2024-03-23T06:10:04;17.40;56.20
81935;DHT22;71405;47.674;-2.050;2024-03-23T06:12:29;17.40;56.40
81935;DHT22;71405;47.674;-2.050;2024-03-23T06:14:55;17.40;56.80
81935;DHT22;71405;47.674;-2.050;2024-03-23T06:17:21;17.40;56.20
81935;DHT22;71405;47.674;-2.050;2024-03-23T06:19:46;17.40;56.10
81935;DHT22;71405;47.674;-2.050;2024-03-23T06:22:12;17.40;56.00
81935;DHT22;71405;47.674;-2.050;2024-03-23T06:24:38;17.40;56.00
81935;DHT22;71405;47.674;-2.050;2024-03-23T06:27:03;17.40;56.00
81935;DHT22;71405;47.674;-2.050;2024-03-23T06:29:30;17.30;56.00
81935;DHT22;71405;47.674;-2.050;2024-03-23T06:31:55;17.40;56.00
81935;DHT22;71405;47.674;-2.050;2024-03-23T06:34:21;17.40;55.90
81935;DHT22;71405;47.674;-2.050;2024-03-23T06:36:48;17.30;55.90
81935;DHT22;71405;47.674;-2.050;2024-03-23T06:39:15;17.30;56.00
81935;DHT22;71405;47.674;-2.050;2024-03-23T06:41:53;17.30;56.10
81935;DHT22;71405;47.674;-2.050;2024-03-23T06:44:20;17.30;56.00
81935;DHT22;71405;47.674;-2.050;2024-03-23T06:46:46;17.30;55.90
81935;DHT22;71405;47.674;-2.050;2024-03-23T06:49:13;17.30;56.00
81935;DHT22;71405;47.674;-2.050;2024-03-23T06:51:38;17.30;55.90
81935;DHT22;71405;47.674;-2.050;2024-03-23T06:54:05;17.30;55.80
81935;DHT22;71405;47.674;-2.050;2024-03-23T06:56:30;17.30;55.90
81935;DHT22;71405;47.674;-2.050;2024-03-23T06:58:57;17.30;55.90
81935;DHT22;71405;47.674;-2.050;2024-03-23T07:01:22;17.30;55.90
81935;DHT22;71405;47.674;-2.050;2024-03-23T07:03:48;17.30;55.90
81935;DHT22;71405;47.674;-2.050;2024-03-23T07:06:14;17.30;55.90
81935;DHT22;71405;47.674;-2.050;2024-03-23T07:08:39;17.30;56.00
81935;DHT22;71405;47.674;-2.050;2024-03-23T07:11:05;17.30;55.80
81935;DHT22;71405;47.674;-2.050;2024-03-23T07:13:31;17.30;55.80
81935;DHT22;71405;47.674;-2.050;2024-03-23T07:15:57;17.30;55.70
81935;DHT22;71405;47.674;-2.050;2024-03-23T07:18:24;17.20;55.90
81935;DHT22;71405;47.674;-2.050;2024-03-23T07:20:56;17.20;55.90
81935;DHT22;71405;47.674;-2.050;2024-03-23T07:23:22;17.20;55.80
81935;DHT22;71405;47.674;-2.050;2024-03-23T07:25:58;17.20;55.80
81935;DHT22;71405;47.674;-2.050;2024-03-23T07:28:24;17.20;56.10
81935;DHT22;71405;47.674;-2.050;2024-03-23T07:33:32;17.20;56.40
81935;DHT22;71405;47.674;-2.050;2024-03-23T07:35:58;17.20;55.70
81935;DHT22;71405;47.674;-2.050;2024-03-23T07:38:28;17.20;55.70
81935;DHT22;71405;47.674;-2.050;2024-03-23T07:41:04;17.20;55.90
81935;DHT22;71405;47.674;-2.050;2024-03-23T07:43:30;17.20;55.80
81935;DHT22;71405;47.674;-2.050;2024-03-23T07:45:56;17.20;55.80
81935;DHT22;71405;47.674;-2.050;2024-03-23T07:48:22;17.20;55.70
81935;DHT22;71405;47.674;-2.050;2024-03-23T07:51:01;17.20;55.80
81935;DHT22;71405;47.674;-2.050;2024-03-23T07:53:28;17.20;55.80
81935;DHT22;71405;47.674;-2.050;2024-03-23T07:56:07;17.20;56.00
81935;DHT22;71405;47.674;-2.050;2024-03-23T07:58:34;17.20;55.80
81935;DHT22;71405;47.674;-2.050;2024-03-23T08:01:07;17.20;55.70
81935;DHT22;71405;47.674;-2.050;2024-03-23T08:03:36;17.20;55.80
81935;DHT22;71405;47.674;-2.050;2024-03-23T08:08:40;17.20;55.70
81935;DHT22;71405;47.674;-2.050;2024-03-23T08:11:06;17.20;55.80
81935;DHT22;71405;47.674;-2.050;2024-03-23T08:13:35;17.20;55.90
81935;DHT22;71405;47.674;-2.050;2024-03-23T08:16:02;17.20;55.90
81935;DHT22;71405;47.674;-2.050;2024-03-23T08:18:28;17.20;54.20
81935;DHT22;71405;47.674;-2.050;2024-03-23T08:23:27;16.60;52.20
81935;DHT22;71405;47.674;-2.050;2024-03-23T08:26:00;16.40;52.00
81935;DHT22;71405;47.674;-2.050;2024-03-23T08:28:27;16.20;51.80
81935;DHT22;71405;47.674;-2.050;2024-03-23T08:30:53;15.40;52.50
81935;DHT22;71405;47.674;-2.050;2024-03-23T08:33:20;14.70;54.00
81935;DHT22;71405;47.674;-2.050;2024-03-23T08:36:02;15.10;54.30
81935;DHT22;71405;47.674;-2.050;2024-03-23T08:38:29;15.70;52.70
81935;DHT22;71405;47.674;-2.050;2024-03-23T08:40:58;15.90;52.20
81935;DHT22;71405;47.674;-2.050;2024-03-23T08:43:24;16.10;51.70
81935;DHT22;71405;47.674;-2.050;2024-03-23T08:45:50;16.20;51.90
81935;DHT22;71405;47.674;-2.050;2024-03-23T08:48:16;16.30;51.50
81935;DHT22;71405;47.674;-2.050;2024-03-23T08:50:42;16.30;51.20
81935;DHT22;71405;47.674;-2.050;2024-03-23T08:53:08;16.30;51.30
81935;DHT22;71405;47.674;-2.050;2024-03-23T08:55:33;16.30;51.00
81935;DHT22;71405;47.674;-2.050;2024-03-23T08:57:59;16.30;51.20
81935;DHT22;71405;47.674;-2.050;2024-03-23T09:00:26;16.30;51.10
81935;DHT22;71405;47.674;-2.050;2024-03-23T09:02:51;16.30;51.00
81935;DHT22;71405;47.674;-2.050;2024-03-23T09:05:18;16.20;51.10
81935;DHT22;71405;47.674;-2.050;2024-03-23T09:07:44;16.30;51.20
81935;DHT22;71405;47.674;-2.050;2024-03-23T09:10:09;16.30;51.20
81935;DHT22;71405;47.674;-2.050;2024-03-23T09:12:35;16.20;51.20
81935;DHT22;71405;47.674;-2.050;2024-03-23T09:15:00;16.20;51.60
81935;DHT22;71405;47.674;-2.050;2024-03-23T09:17:26;16.20;50.80
81935;DHT22;71405;47.674;-2.050;2024-03-23T09:19:52;16.20;50.90
81935;DHT22;71405;47.674;-2.050;2024-03-23T09:22:17;16.20;50.90
81935;DHT22;71405;47.674;-2.050;2024-03-23T09:24:43;16.20;50.80
81935;DHT22;71405;47.674;-2.050;2024-03-23T09:27:08;16.20;50.40
81935;DHT22;71405;47.674;-2.050;2024-03-23T09:29:34;16.20;50.90
81935;DHT22;71405;47.674;-2.050;2024-03-23T09:32:00;16.30;51.10
81935;DHT22;71405;47.674;-2.050;2024-03-23T09:34:25;16.40;51.10
81935;DHT22;71405;47.674;-2.050;2024-03-23T09:36:51;16.50;50.90
81935;DHT22;71405;47.674;-2.050;2024-03-23T09:39:18;16.50;51.20
81935;DHT22;71405;47.674;-2.050;2024-03-23T09:41:43;16.60;51.40
81935;DHT22;71405;47.674;-2.050;2024-03-23T09:44:09;16.60;51.70
81935;DHT22;71405;47.674;-2.050;2024-03-23T09:46:35;16.60;51.20
81935;DHT22;71405;47.674;-2.050;2024-03-23T09:49:02;16.70;51.60
81935;DHT22;71405;47.674;-2.050;2024-03-23T09:51:32;16.60;52.00
81935;DHT22;71405;47.674;-2.050;2024-03-23T09:53:57;16.60;52.40
81935;DHT22;71405;47.674;-2.050;2024-03-23T09:56:23;16.70;52.40
81935;DHT22;71405;47.674;-2.050;2024-03-23T09:58:49;16.70;52.00
81935;DHT22;71405;47.674;-2.050;2024-03-23T10:01:15;16.70;52.50
81935;DHT22;71405;47.674;-2.050;2024-03-23T10:03:44;16.70;53.00
81935;DHT22;71405;47.674;-2.050;2024-03-23T10:06:11;16.80;53.20
81935;DHT22;71405;47.674;-2.050;2024-03-23T10:08:36;16.80;52.80
81935;DHT22;71405;47.674;-2.050;2024-03-23T10:11:28;16.80;52.70
81935;DHT22;71405;47.674;-2.050;2024-03-23T10:13:54;16.80;52.90
81935;DHT22;71405;47.674;-2.050;2024-03-23T10:16:23;16.80;52.70
81935;DHT22;71405;47.674;-2.050;2024-03-23T10:18:49;16.80;53.10
81935;DHT22;71405;47.674;-2.050;2024-03-23T10:21:15;16.80;53.00
81935;DHT22;71405;47.674;-2.050;2024-03-23T10:23:42;16.80;52.40
81935;DHT22;71405;47.674;-2.050;2024-03-23T10:26:20;16.80;52.60
81935;DHT22;71405;47.674;-2.050;2024-03-23T10:29:01;16.80;52.80
81935;DHT22;71405;47.674;-2.050;2024-03-23T10:31:33;16.80;53.20
81935;DHT22;71405;47.674;-2.050;2024-03-23T10:34:02;16.80;53.30
81935;DHT22;71405;47.674;-2.050;2024-03-23T10:36:29;16.90;53.40
81935;DHT22;71405;47.674;-2.050;2024-03-23T10:38:56;16.90;54.00
81935;DHT22;71405;47.674;-2.050;2024-03-23T10:41:26;16.90;54.20
81935;DHT22;71405;47.674;-2.050;2024-03-23T10:43:53;16.90;53.70
81935;DHT22;71405;47.674;-2.050;2024-03-23T10:46:21;16.90;53.60
81935;DHT22;71405;47.674;-2.050;2024-03-23T10:48:46;16.90;53.80
81935;DHT22;71405;47.674;-2.050;2024-03-23T10:51:14;16.90;54.00
81935;DHT22;71405;47.674;-2.050;2024-03-23T10:53:40;16.90;54.00
81935;DHT22;71405;47.674;-2.050;2024-03-23T10:56:06;16.90;53.70
81935;DHT22;71405;47.674;-2.050;2024-03-23T10:58:40;16.90;54.10
81935;DHT22;71405;47.674;-2.050;2024-03-23T11:01:07;16.90;53.20
81935;DHT22;71405;47.674;-2.050;2024-03-23T11:03:36;17.00;53.50
81935;DHT22;71405;47.674;-2.050;2024-03-23T11:06:03;16.90;53.30
81935;DHT22;71405;47.674;-2.050;2024-03-23T11:08:33;17.00;53.30
81935;DHT22;71405;47.674;-2.050;2024-03-23T11:11:20;17.00;53.60
81935;DHT22;71405;47.674;-2.050;2024-03-23T11:13:53;16.90;53.50
81935;DHT22;71405;47.674;-2.050;2024-03-23T11:16:26;16.90;53.80
81935;DHT22;71405;47.674;-2.050;2024-03-23T11:21:59;17.00;54.00
81935;DHT22;71405;47.674;-2.050;2024-03-23T11:24:25;17.00;53.80
81935;DHT22;71405;47.674;-2.050;2024-03-23T11:26:51;17.00;53.70
81935;DHT22;71405;47.674;-2.050;2024-03-23T11:29:17;17.00;53.70
81935;DHT22;71405;47.674;-2.050;2024-03-23T11:31:51;17.00;54.10
81935;DHT22;71405;47.674;-2.050;2024-03-23T11:34:18;17.00;53.80
81935;DHT22;71405;47.674;-2.050;2024-03-23T11:36:44;17.00;54.00
81935;DHT22;71405;47.674;-2.050;2024-03-23T11:39:18;17.00;54.00
81935;DHT22;71405;47.674;-2.050;2024-03-23T11:41:56;17.00;54.10
81935;DHT22;71405;47.674;-2.050;2024-03-23T11:44:23;17.00;54.20
81935;DHT22;71405;47.674;-2.050;2024-03-23T11:46:50;17.00;51.90
81935;DHT22;71405;47.674;-2.050;2024-03-23T11:49:28;16.50;49.80
81935;DHT22;71405;47.674;-2.050;2024-03-23T11:51:57;16.10;51.10
81935;DHT22;71405;47.674;-2.050;2024-03-23T11:54:24;15.90;50.20
81935;DHT22;71405;47.674;-2.050;2024-03-23T11:57:04;15.90;52.00
81935;DHT22;71405;47.674;-2.050;2024-03-23T11:59:40;16.00;51.80
81935;DHT22;71405;47.674;-2.050;2024-03-23T12:02:13;16.10;51.30
81935;DHT22;71405;47.674;-2.050;2024-03-23T12:04:42;16.10;50.20
81935;DHT22;71405;47.674;-2.050;2024-03-23T12:07:17;16.10;49.90
81935;DHT22;71405;47.674;-2.050;2024-03-23T12:10:07;15.70;48.30
81935;DHT22;71405;47.674;-2.050;2024-03-23T12:12:33;15.90;50.90
81935;DHT22;71405;47.674;-2.050;2024-03-23T12:15:04;16.20;51.10
81935;DHT22;71405;47.674;-2.050;2024-03-23T12:17:31;16.40;51.40
81935;DHT22;71405;47.674;-2.050;2024-03-23T12:19:57;16.60;51.80
81935;DHT22;71405;47.674;-2.050;2024-03-23T12:22:23;16.60;51.90
81935;DHT22;71405;47.674;-2.050;2024-03-23T12:24:49;16.70;51.90
81935;DHT22;71405;47.674;-2.050;2024-03-23T12:27:17;16.70;51.60
81935;DHT22;71405;47.674;-2.050;2024-03-23T12:29:42;16.80;52.40
81935;DHT22;71405;47.674;-2.050;2024-03-23T12:32:13;16.80;52.40
81935;DHT22;71405;47.674;-2.050;2024-03-23T12:34:39;16.90;53.20
81935;DHT22;71405;47.674;-2.050;2024-03-23T12:37:05;16.90;53.90
81935;DHT22;71405;47.674;-2.050;2024-03-23T12:39:35;17.00;55.30
81935;DHT22;71405;47.674;-2.050;2024-03-23T12:42:01;17.00;55.60
81935;DHT22;71405;47.674;-2.050;2024-03-23T12:44:28;17.00;55.70
81935;DHT22;71405;47.674;-2.050;2024-03-23T12:46:54;17.00;55.60
81935;DHT22;71405;47.674;-2.050;2024-03-23T12:49:19;17.00;55.40
81935;DHT22;71405;47.674;-2.050;2024-03-23T12:51:53;17.00;55.30
81935;DHT22;71405;47.674;-2.050;2024-03-23T12:54:20;17.00;55.10
81935;DHT22;71405;47.674;-2.050;2024-03-23T12:56:46;17.00;55.70
81935;DHT22;71405;47.674;-2.050;2024-03-23T12:59:12;17.10;55.10
81935;DHT22;71405;47.674;-2.050;2024-03-23T13:01:38;17.10;55.00
81935;DHT22;71405;47.674;-2.050;2024-03-23T13:04:04;17.10;55.00
81935;DHT22;71405;47.674;-2.050;2024-03-23T13:06:30;17.10;55.00
81935;DHT22;71405;47.674;-2.050;2024-03-23T13:09:00;17.10;55.20
81935;DHT22;71405;47.674;-2.050;2024-03-23T13:11:27;17.10;55.30
81935;DHT22;71405;47.674;-2.050;2024-03-23T13:13:53;17.10;55.20
81935;DHT22;71405;47.674;-2.050;2024-03-23T13:16:18;17.10;55.10
81935;DHT22;71405;47.674;-2.050;2024-03-23T13:18:44;17.10;55.20
81935;DHT22;71405;47.674;-2.050;2024-03-23T13:21:09;17.10;55.10
81935;DHT22;71405;47.674;-2.050;2024-03-23T13:23:35;17.10;55.20
81935;DHT22;71405;47.674;-2.050;2024-03-23T13:26:03;17.10;54.70
81935;DHT22;71405;47.674;-2.050;2024-03-23T13:28:29;17.10;54.90
81935;DHT22;71405;47.674;-2.050;2024-03-23T13:30:56;17.10;55.10
81935;DHT22;71405;47.674;-2.050;2024-03-23T13:33:23;17.10;55.00
81935;DHT22;71405;47.674;-2.050;2024-03-23T13:35:52;17.10;55.10
81935;DHT22;71405;47.674;-2.050;2024-03-23T13:38:19;17.10;55.20
81935;DHT22;71405;47.674;-2.050;2024-03-23T13:40:57;17.10;55.10
81935;DHT22;71405;47.674;-2.050;2024-03-23T13:43:24;17.10;55.20
81935;DHT22;71405;47.674;-2.050;2024-03-23T13:45:57;17.20;55.30
81935;DHT22;71405;47.674;-2.050;2024-03-23T13:48:24;17.20;55.30
81935;DHT22;71405;47.674;-2.050;2024-03-23T13:50:59;17.20;55.10
81935;DHT22;71405;47.674;-2.050;2024-03-23T13:53:25;17.30;55.00
81935;DHT22;71405;47.674;-2.050;2024-03-23T13:55:51;17.30;55.20
81935;DHT22;71405;47.674;-2.050;2024-03-23T13:58:16;17.20;55.30
81935;DHT22;71405;47.674;-2.050;2024-03-23T14:00:42;17.20;55.30
81935;DHT22;71405;47.674;-2.050;2024-03-23T14:03:09;17.20;55.30
81935;DHT22;71405;47.674;-2.050;2024-03-23T14:05:35;17.20;55.40
81935;DHT22;71405;47.674;-2.050;2024-03-23T14:08:00;17.20;55.60
81935;DHT22;71405;47.674;-2.050;2024-03-23T14:10:26;17.20;55.70
81935;DHT22;71405;47.674;-2.050;2024-03-23T14:12:53;17.20;55.60
81935;DHT22;71405;47.674;-2.050;2024-03-23T14:15:19;17.20;55.50
81935;DHT22;71405;47.674;-2.050;2024-03-23T14:17:44;17.20;55.40
81935;DHT22;71405;47.674;-2.050;2024-03-23T14:20:11;17.20;55.30
81935;DHT22;71405;47.674;-2.050;2024-03-23T14:22:37;17.20;55.30
81935;DHT22;71405;47.674;-2.050;2024-03-23T14:25:04;17.20;55.30
81935;DHT22;71405;47.674;-2.050;2024-03-23T14:27:29;17.20;55.10
81935;DHT22;71405;47.674;-2.050;2024-03-23T14:29:55;17.20;55.30
81935;DHT22;71405;47.674;-2.050;2024-03-23T14:32:22;17.20;55.50
81935;DHT22;71405;47.674;-2.050;2024-03-23T14:34:48;17.20;55.30
81935;DHT22;71405;47.674;-2.050;2024-03-23T14:37:13;17.20;55.30
81935;DHT22;71405;47.674;-2.050;2024-03-23T14:39:41;17.20;55.50
81935;DHT22;71405;47.674;-2.050;2024-03-23T14:42:07;17.20;55.80
81935;DHT22;71405;47.674;-2.050;2024-03-23T14:44:36;17.30;55.70
81935;DHT22;71405;47.674;-2.050;2024-03-23T14:47:01;17.30;55.40
81935;DHT22;71405;47.674;-2.050;2024-03-23T14:49:27;17.40;55.30
81935;DHT22;71405;47.674;-2.050;2024-03-23T14:51:53;17.40;55.30
81935;DHT22;71405;47.674;-2.050;2024-03-23T14:54:18;17.40;55.10
81935;DHT22;71405;47.674;-2.050;2024-03-23T14:56:44;17.40;55.70
81935;DHT22;71405;47.674;-2.050;2024-03-23T14:59:10;17.50;55.40
81935;DHT22;71405;47.674;-2.050;2024-03-23T15:01:35;17.50;55.10
81935;DHT22;71405;47.674;-2.050;2024-03-23T15:04:01;17.60;55.20
81935;DHT22;71405;47.674;-2.050;2024-03-23T15:06:26;17.70;54.90
81935;DHT22;71405;47.674;-2.050;2024-03-23T15:08:52;17.70;54.90
81935;DHT22;71405;47.674;-2.050;2024-03-23T15:11:19;17.80;54.80
81935;DHT22;71405;47.674;-2.050;2024-03-23T15:13:45;17.90;54.90
81935;DHT22;71405;47.674;-2.050;2024-03-23T15:16:17;17.90;55.10
81935;DHT22;71405;47.674;-2.050;2024-03-23T15:18:45;17.90;54.80
81935;DHT22;71405;47.674;-2.050;2024-03-23T15:21:11;18.00;54.70
81935;DHT22;71405;47.674;-2.050;2024-03-23T15:23:37;18.00;55.00
81935;DHT22;71405;47.674;-2.050;2024-03-23T15:26:04;18.00;54.90
81935;DHT22;71405;47.674;-2.050;2024-03-23T15:28:31;18.00;54.70
81935;DHT22;71405;47.674;-2.050;2024-03-23T15:31:15;18.10;54.80
81935;DHT22;71405;47.674;-2.050;2024-03-23T15:33:41;18.10;54.60
81935;DHT22;71405;47.674;-2.050;2024-03-23T15:36:07;18.10;54.70
81935;DHT22;71405;47.674;-2.050;2024-03-23T15:38:32;18.10;54.40
81935;DHT22;71405;47.674;-2.050;2024-03-23T15:40:59;18.20;54.60
81935;DHT22;71405;47.674;-2.050;2024-03-23T15:43:25;18.20;54.50
81935;DHT22;71405;47.674;-2.050;2024-03-23T15:45:58;18.30;54.60
81935;DHT22;71405;47.674;-2.050;2024-03-23T15:48:27;18.30;54.50
81935;DHT22;71405;47.674;-2.050;2024-03-23T15:50:57;18.40;54.40
81935;DHT22;71405;47.674;-2.050;2024-03-23T15:53:24;18.50;54.30
81935;DHT22;71405;47.674;-2.050;2024-03-23T15:55:59;18.50;54.40
81935;DHT22;71405;47.674;-2.050;2024-03-23T15:58:25;18.60;54.60
81935;DHT22;71405;47.674;-2.050;2024-03-23T16:00:55;18.60;54.50
81935;DHT22;71405;47.674;-2.050;2024-03-23T16:03:21;18.60;54.80
81935;DHT22;71405;47.674;-2.050;2024-03-23T16:05:54;18.70;54.70
81935;DHT22;71405;47.674;-2.050;2024-03-23T16:08:19;18.60;52.30
81935;DHT22;71405;47.674;-2.050;2024-03-23T16:10:45;18.40;53.60
81935;DHT22;71405;47.674;-2.050;2024-03-23T16:13:11;18.50;53.80
81935;DHT22;71405;47.674;-2.050;2024-03-23T16:15:36;18.60;53.60
81935;DHT22;71405;47.674;-2.050;2024-03-23T16:18:02;18.70;53.60